Time;durP1;ratioP1;P1;durP2;ratioP2;P2;SDS_P1;SDS_P2;PMS_P1;PMS_P2;Temp;Humidity;BMP_temperature;BMP_pressure;BME280_temperature;BME280_humidity;BME280_pressure;Samples;Min_cycle;Max_cycle;Signal;HPM_P1;HPM_P2
2023/01/12 00:01:40;;;;;;;49.90;7.10;;;10.00;99.90;;;;;;6274002;22;37583;-76
2023/01/12 00:04:06;;;;;;;45.93;7.67;;;10.00;99.90;;;;;;6274463;22;39224;-76
2023/01/12 00:06:33;;;;;;;54.43;7.63;;;10.00;99.90;;;;;;6303739;22;38937;-75
2023/01/12 00:09:02;;;;;;;61.00;9.57;;;10.00;99.90;;;;;;6304864;22;37289;-76
2023/01/12 00:11:29;;;;;;;66.50;8.80;;;10.10;99.90;;;;;;6301514;22;47165;-75
2023/01/12 00:13:55;;;;;;;67.53;9.87;;;10.10;99.90;;;;;;6277647;22;38346;-77
2023/01/12 00:16:38;;;;;;;71.23;11.10;;;10.10;99.90;;;;;;6305375;22;38868;-76
2023/01/12 00:19:11;;;;;;;72.00;10.53;;;10.10;99.90;;;;;;6277851;22;36090;-76
2023/01/12 00:21:59;;;;;;;75.73;10.37;;;10.20;99.90;;;;;;6273406;22;38782;-76
2023/01/12 00:24:29;;;;;;;78.80;11.50;;;10.20;99.90;;;;;;6273983;22;37845;-76
2023/01/12 00:26:57;;;;;;;84.80;11.67;;;10.30;99.90;;;;;;6279090;22;37112;-74
2023/01/12 00:29:24;;;;;;;68.93;11.30;;;10.40;99.90;;;;;;6275213;22;36649;-75
2023/01/12 00:31:52;;;;;;;91.30;12.17;;;10.30;99.90;;;;;;6277801;22;39663;-74
2023/01/12 00:34:18;;;;;;;83.80;11.27;;;10.30;99.90;;;;;;6304500;22;38512;-76
2023/01/12 00:36:46;;;;;;;76.93;10.27;;;10.30;99.90;;;;;;6276857;22;37616;-77
2023/01/12 00:39:13;;;;;;;74.50;11.23;;;10.40;99.90;;;;;;6269919;22;36156;-75
2023/01/12 00:47:11;;;;;;;77.40;12.13;;;10.40;99.90;;;;;;6300187;22;39394;-76
2023/01/12 00:49:39;;;;;;;63.00;9.20;;;10.30;99.90;;;;;;6272690;22;36748;-76
2023/01/12 00:52:09;;;;;;;66.03;9.37;;;10.30;99.90;;;;;;6271521;22;37832;-76
2023/01/12 00:54:35;;;;;;;57.60;8.20;;;10.20;99.90;;;;;;6299201;22;39422;-75
2023/01/12 00:57:02;;;;;;;60.70;8.13;;;10.20;99.90;;;;;;6273003;22;38467;-75
2023/01/12 00:59:28;;;;;;;49.30;7.80;;;10.10;99.90;;;;;;6302904;22;48961;-76
2023/01/12 01:01:55;;;;;;;57.87;9.40;;;10.10;99.90;;;;;;6303384;22;39648;-75
2023/01/12 01:04:21;;;;;;;54.60;7.97;;;10.10;99.90;;;;;;6272837;22;37473;-75
2023/01/12 01:06:47;;;;;;;53.63;7.10;;;10.10;99.90;;;;;;6272913;22;38383;-76
2023/01/12 01:09:13;;;;;;;43.60;7.47;;;10.10;99.90;;;;;;6271811;22;37332;-76
2023/01/12 01:11:40;;;;;;;51.93;8.60;;;10.10;99.90;;;;;;6302760;22;39021;-76
2023/01/12 01:14:06;;;;;;;46.00;7.70;;;10.10;99.90;;;;;;6272761;22;37378;-75
2023/01/12 01:16:34;;;;;;;48.77;7.70;;;10.10;99.90;;;;;;6242885;22;36829;-75
2023/01/12 01:19:02;;;;;;;43.17;6.90;;;10.10;99.90;;;;;;6269010;22;36875;-75
2023/01/12 01:21:28;;;;;;;47.43;8.17;;;10.10;99.90;;;;;;6272173;22;47139;-76
2023/01/12 01:23:54;;;;;;;41.07;6.17;;;10.10;99.90;;;;;;6304199;22;39465;-76
2023/01/12 01:26:22;;;;;;;36.40;6.50;;;10.10;99.90;;;;;;6306036;22;38179;-76
2023/01/12 01:28:49;;;;;;;46.13;6.13;;;10.10;99.90;;;;;;6276118;22;36187;-77
2023/01/12 01:31:20;;;;;;;30.97;5.53;;;10.10;99.90;;;;;;6275185;22;37684;-76
2023/01/12 01:33:47;;;;;;;39.70;6.43;;;10.10;99.90;;;;;;6303373;22;38433;-76
2023/01/12 01:36:17;;;;;;;33.10;5.93;;;10.10;99.90;;;;;;6297834;22;37671;-76
2023/01/12 01:38:44;;;;;;;20.27;4.30;;;10.00;99.90;;;;;;6268968;22;36721;-78
2023/01/12 01:41:20;;;;;;;23.77;3.30;;;10.00;99.90;;;;;;6271454;22;39228;-76
2023/01/12 01:43:51;;;;;;;20.83;3.67;;;10.00;99.90;;;;;;6270427;22;39004;-77
2023/01/12 01:46:25;;;;;;;22.63;3.63;;;10.00;99.90;;;;;;6269888;22;38871;-76
2023/01/12 01:48:52;;;;;;;23.00;3.40;;;10.00;99.90;;;;;;6273708;22;36026;-76
2023/01/12 01:51:19;;;;;;;17.77;3.10;;;10.00;99.90;;;;;;6275456;22;39153;-77
2023/01/12 01:53:46;;;;;;;15.90;3.40;;;10.00;99.90;;;;;;6280868;22;37097;-76
2023/01/12 01:56:17;;;;;;;20.70;3.67;;;10.00;99.90;;;;;;6286158;22;37593;-76
2023/01/12 01:58:53;;;;;;;17.50;4.00;;;10.00;99.90;;;;;;6320809;22;38314;-76
2023/01/12 02:03:55;;;;;;;37.27;5.13;;;10.10;99.90;;;;;;6327582;22;20412;-79
2023/01/12 02:06:25;;;;;;;29.30;5.90;;;10.20;99.90;;;;;;6306987;22;36799;-79
2023/01/12 02:08:56;;;;;;;31.50;4.70;;;10.20;99.90;;;;;;6337241;22;36930;-78
2023/01/12 02:17:39;;;;;;;30.67;6.43;;;10.20;99.90;;;;;;6337414;22;39260;-78
2023/01/12 02:20:39;;;;;;;34.10;5.37;;;10.30;99.90;;;;;;6334185;22;48562;-77
2023/01/12 02:23:42;;;;;;;28.67;5.17;;;10.20;99.90;;;;;;6337476;22;38645;-78
2023/01/12 02:26:27;;;;;;;;;;;10.30;99.90;;;;;;6309016;22;37702;-78
2023/01/12 02:29:19;;;;;;;40.80;5.53;;;10.30;99.90;;;;;;6306848;22;36830;-79
2023/01/12 02:31:45;;;;;;;42.50;6.77;;;10.30;99.90;;;;;;6304902;22;37524;-77
2023/01/12 02:34:43;;;;;;;37.90;5.57;;;10.30;99.90;;;;;;6309078;22;37448;-79
2023/01/12 02:37:15;;;;;;;47.53;6.33;;;10.30;99.90;;;;;;6310557;22;37378;-78
2023/01/12 02:39:43;;;;;;;36.63;4.70;;;10.30;99.90;;;;;;6340301;22;39007;-79
2023/01/12 02:45:33;;;;;;;40.27;5.00;;;10.20;99.90;;;;;;6338718;22;40081;-79
2023/01/12 02:48:12;;;;;;;31.93;5.63;;;10.20;99.90;;;;;;6337677;22;48937;-79
2023/01/12 02:50:59;;;;;;;39.00;5.93;;;10.30;99.90;;;;;;6309959;22;48258;-79
2023/01/12 02:53:34;;;;;;;29.07;5.33;;;10.20;99.90;;;;;;6311991;22;37642;-79
2023/01/12 02:56:03;;;;;;;36.63;5.17;;;10.20;99.90;;;;;;6315889;22;38779;-79
2023/01/12 02:58:34;;;;;;;33.87;5.53;;;10.20;99.90;;;;;;6313131;22;46978;-78
2023/01/12 03:01:02;;;;;;;30.73;5.33;;;10.20;99.90;;;;;;6344081;22;38404;-78
2023/01/12 03:03:28;;;;;;;34.73;5.30;;;10.20;99.90;;;;;;6289542;22;1166524;-80
2023/01/12 03:05:58;;;;;;;32.43;5.77;;;10.10;99.90;;;;;;6313562;22;37480;-78
2023/01/12 03:08:28;;;;;;;38.20;6.90;;;10.10;99.90;;;;;;6314934;22;37512;-79
2023/01/12 03:10:59;;;;;;;34.77;5.67;;;10.10;99.90;;;;;;6348611;22;38190;-79
2023/01/12 03:13:30;;;;;;;35.37;7.73;;;10.00;99.90;;;;;;6313997;22;36288;-79
2023/01/12 03:15:58;;;;;;;25.40;4.20;;;10.00;99.90;;;;;;6343199;22;39163;-78
2023/01/12 03:18:40;;;;;;;28.07;4.67;;;9.90;99.90;;;;;;6346300;22;38279;-79
2023/01/12 03:21:20;;;;;;;23.20;5.27;;;9.90;99.90;;;;;;6324614;22;38318;-78
2023/01/12 03:23:51;;;;;;;26.77;6.90;;;9.80;99.90;;;;;;6321350;22;37683;-79
2023/01/12 03:26:22;;;;;;;23.70;5.23;;;9.80;99.90;;;;;;6314286;22;38052;-78
2023/01/12 03:29:01;;;;;;;24.23;4.77;;;9.80;99.90;;;;;;6316169;22;38775;-78
2023/01/12 03:31:27;;;;;;;25.50;5.20;;;9.80;99.90;;;;;;6340069;22;38934;-79
2023/01/12 03:33:54;;;;;;;30.70;6.80;;;9.80;99.90;;;;;;6316925;22;36142;-79
2023/01/12 03:36:39;;;;;;;29.70;5.93;;;9.80;99.90;;;;;;6344207;22;38809;-79
2023/01/12 03:39:22;;;;;;;28.57;5.60;;;9.80;99.90;;;;;;6312031;22;37488;-78
2023/01/12 03:42:01;;;;;;;24.48;5.90;;;9.80;99.90;;;;;;6349312;22;39514;-79
2023/01/12 03:44:36;;;;;;;21.13;5.50;;;9.80;99.90;;;;;;6317514;22;48026;-78
2023/01/12 03:47:08;;;;;;;23.43;5.87;;;9.80;99.90;;;;;;6339465;22;39480;-77
2023/01/12 03:49:52;;;;;;;19.70;6.63;;;9.80;99.90;;;;;;6312689;22;37081;-79
2023/01/12 03:52:20;;;;;;;20.10;5.00;;;9.80;99.90;;;;;;6310518;22;37302;-78
2023/01/12 03:54:48;;;;;;;27.70;6.20;;;9.70;99.90;;;;;;6340117;22;36912;-78
2023/01/12 03:57:15;;;;;;;16.43;4.63;;;9.70;99.90;;;;;;6344724;22;39742;-79
2023/01/12 03:59:42;;;;;;;24.33;4.53;;;9.70;99.90;;;;;;6342959;22;39456;-80
2023/01/12 04:02:08;;;;;;;22.80;3.87;;;9.70;99.90;;;;;;6340610;22;38057;-79
2023/01/12 04:04:35;;;;;;;21.17;4.60;;;9.70;99.90;;;;;;6315340;22;37612;-79
2023/01/12 04:07:01;;;;;;;19.07;4.33;;;9.70;99.90;;;;;;6316180;22;37687;-79
2023/01/12 04:09:27;;;;;;;32.43;5.10;;;9.70;99.90;;;;;;6339060;22;47733;-79
2023/01/12 04:12:12;;;;;;;18.97;3.97;;;9.70;99.90;;;;;;6314414;22;38192;-79
2023/01/12 04:14:40;;;;;;;15.67;3.93;;;9.70;99.90;;;;;;6313307;22;47492;-79
2023/01/12 04:17:08;;;;;;;20.50;4.07;;;9.70;99.90;;;;;;6341826;22;39849;-79
2023/01/12 04:19:34;;;;;;;20.50;4.37;;;9.70;99.90;;;;;;6344011;22;39475;-78
2023/01/12 04:24:45;;;;;;;16.80;4.10;;;9.70;99.90;;;;;;6339039;22;49181;-78
2023/01/12 04:27:11;;;;;;;17.93;3.83;;;9.70;99.90;;;;;;6315771;22;40099;-79
2023/01/12 04:29:37;;;;;;;22.73;4.57;;;9.70;99.90;;;;;;6316726;22;38438;-78
2023/01/12 04:32:04;;;;;;;19.37;3.93;;;9.80;99.90;;;;;;6317010;22;36985;-78
2023/01/12 04:34:30;;;;;;;19.13;3.30;;;9.80;99.90;;;;;;6315907;22;36272;-79
2023/01/12 04:36:56;;;;;;;23.73;3.57;;;9.80;99.90;;;;;;6315594;22;37554;-78
2023/01/12 04:39:22;;;;;;;9.73;3.00;;;9.80;99.90;;;;;;6344748;22;39079;-79
2023/01/12 04:41:48;;;;;;;12.53;3.40;;;9.80;99.90;;;;;;6343442;22;38909;-79
2023/01/12 04:44:14;;;;;;;15.77;3.27;;;9.80;99.90;;;;;;6316783;22;37163;-79
2023/01/12 04:46:40;;;;;;;16.13;3.30;;;9.80;99.90;;;;;;6313457;22;37489;-79
2023/01/12 04:49:06;;;;;;;13.97;3.20;;;9.80;99.90;;;;;;6312388;22;37587;-79
2023/01/12 04:51:33;;;;;;;15.87;3.23;;;9.80;99.90;;;;;;6342405;22;38836;-78
2023/01/12 04:53:59;;;;;;;16.07;3.00;;;9.80;99.90;;;;;;6316654;22;36581;-78
2023/01/12 04:56:25;;;;;;;19.93;3.27;;;9.80;99.90;;;;;;6312651;22;37691;-78
2023/01/12 04:58:58;;;;;;;22.67;3.40;;;9.80;99.90;;;;;;6309657;22;37647;-79
2023/01/12 05:01:25;;;;;;;14.00;2.77;;;9.80;99.90;;;;;;6307773;22;38319;-78
2023/01/12 05:03:54;;;;;;;11.63;2.33;;;9.80;99.90;;;;;;6335046;22;38395;-78
2023/01/12 05:06:21;;;;;;;12.23;2.00;;;9.80;99.90;;;;;;6332274;22;38735;-78
2023/01/12 05:11:32;;;;;;;7.23;1.50;;;9.90;99.90;;;;;;6336196;22;49258;-78
2023/01/12 05:13:59;;;;;;;11.37;2.07;;;9.90;99.90;;;;;;6337595;22;38252;-78
2023/01/12 05:16:26;;;;;;;9.83;1.80;;;9.90;99.90;;;;;;6336407;22;38473;-78
2023/01/12 05:18:53;;;;;;;9.93;1.63;;;10.00;99.90;;;;;;6339085;22;39427;-79
2023/01/12 05:21:21;;;;;;;10.00;1.50;;;10.00;99.90;;;;;;6336780;22;38399;-77
2023/01/12 05:23:48;;;;;;;9.53;1.57;;;10.00;99.90;;;;;;6337745;22;37451;-78
2023/01/12 05:26:14;;;;;;;11.10;2.10;;;10.10;99.90;;;;;;6308055;22;38464;-79
2023/01/12 05:28:40;;;;;;;10.27;1.80;;;10.10;99.90;;;;;;6337343;22;38185;-78
2023/01/12 05:31:09;;;;;;;14.87;1.80;;;10.10;99.90;;;;;;6310200;22;36703;-78
2023/01/12 05:33:37;;;;;;;6.10;1.47;;;10.20;99.90;;;;;;6337277;22;37041;-79
2023/01/12 05:36:08;;;;;;;9.33;1.70;;;10.30;99.90;;;;;;6308372;22;39223;-78
2023/01/12 05:38:34;;;;;;;6.80;1.40;;;10.30;99.90;;;;;;6337900;22;38399;-78
2023/01/12 05:41:02;;;;;;;6.57;1.10;;;10.40;99.90;;;;;;6308841;22;37795;-78
2023/01/12 05:46:14;;;;;;;7.10;1.33;;;10.60;99.90;;;;;;6329591;22;39209;-77
2023/01/12 05:48:41;;;;;;;7.63;1.40;;;10.50;99.90;;;;;;6303834;22;38295;-77
2023/01/12 05:51:09;;;;;;;10.23;1.83;;;10.60;99.90;;;;;;6336493;22;38963;-77
2023/01/12 05:53:35;;;;;;;7.47;1.83;;;10.60;99.90;;;;;;6339185;22;38259;-78
2023/01/12 05:56:07;;;;;;;9.20;1.50;;;10.60;99.90;;;;;;6308863;22;37764;-78
2023/01/12 05:58:33;;;;;;;12.13;1.98;;;10.70;99.90;;;;;;6310442;22;47290;-78
2023/01/12 06:00:59;;;;;;;9.83;1.63;;;10.80;99.90;;;;;;6308373;22;37194;-78
2023/01/12 06:03:25;;;;;;;13.60;2.23;;;10.80;99.90;;;;;;6308579;22;36195;-78
2023/01/12 06:05:57;;;;;;;14.07;2.47;;;10.90;99.90;;;;;;6335737;22;38605;-78
2023/01/12 06:08:24;;;;;;;13.83;2.77;;;10.90;99.90;;;;;;6309999;22;38317;-79
2023/01/12 06:10:51;;;;;;;13.73;2.63;;;11.00;99.90;;;;;;6309245;22;38247;-79
2023/01/12 06:16:04;;;;;;;18.57;3.43;;;11.10;99.90;;;;;;6338886;22;39808;-78
2023/01/12 06:18:38;;;;;;;18.80;2.70;;;11.10;99.90;;;;;;6311327;22;38740;-78
2023/01/12 06:21:05;;;;;;;18.40;3.10;;;11.10;99.90;;;;;;6336450;22;37971;-76
2023/01/12 06:23:32;;;;;;;17.77;2.70;;;11.20;99.90;;;;;;6339206;22;37077;-78
2023/01/12 06:26:03;;;;;;;19.47;3.17;;;11.20;99.90;;;;;;6315212;22;38324;-78
2023/01/12 06:28:29;;;;;;;23.73;3.70;;;11.20;99.90;;;;;;6322401;22;46963;-78
2023/01/12 06:30:57;;;;;;;20.50;3.10;;;11.20;99.90;;;;;;6317289;22;36715;-77
2023/01/12 06:33:24;;;;;;;16.30;3.20;;;11.20;99.90;;;;;;6310407;22;35881;-77
2023/01/12 06:35:51;;;;;;;25.07;3.80;;;11.30;99.90;;;;;;6312727;22;37920;-78
2023/01/12 06:38:18;;;;;;;22.52;3.70;;;11.30;99.90;;;;;;6329131;22;37004;-79
2023/01/12 06:40:45;;;;;;;23.00;3.40;;;11.40;99.90;;;;;;6339056;22;38256;-80
2023/01/12 06:43:11;;;;;;;19.42;2.90;;;11.30;99.90;;;;;;6319718;22;36520;-79
2023/01/12 06:45:37;;;;;;;25.77;3.73;;;11.40;99.90;;;;;;6319162;22;37599;-79
2023/01/12 06:48:04;;;;;;;34.20;4.13;;;11.40;99.90;;;;;;6342250;22;38469;-78
2023/01/12 06:50:31;;;;;;;22.00;4.00;;;11.40;99.90;;;;;;6313920;22;36974;-79
2023/01/12 06:52:59;;;;;;;32.03;4.30;;;11.40;99.90;;;;;;6314900;22;36379;-80
2023/01/12 06:55:25;;;;;;;30.33;4.13;;;11.40;99.90;;;;;;6350077;22;38704;-80
2023/01/12 06:57:51;;;;;;;18.80;3.93;;;11.40;99.90;;;;;;6321729;22;37216;-80
2023/01/12 07:00:18;;;;;;;29.50;4.40;;;11.50;99.90;;;;;;6313700;22;39139;-79
2023/01/12 07:02:44;;;;;;;31.50;5.10;;;11.50;99.90;;;;;;6313214;22;36425;-80
2023/01/12 07:05:10;;;;;;;27.60;4.47;;;11.50;99.90;;;;;;6333583;22;38820;-81
2023/01/12 07:07:39;;;;;;;25.83;4.33;;;11.50;99.90;;;;;;6333110;22;38691;-81
2023/01/12 07:10:06;;;;;;;29.27;3.53;;;11.50;99.90;;;;;;6331037;22;36906;-79
2023/01/12 07:12:32;;;;;;;24.07;3.93;;;11.50;99.90;;;;;;6339326;22;37051;-80
2023/01/12 07:14:58;;;;;;;27.23;4.20;;;11.50;99.90;;;;;;6324501;22;38085;-80
2023/01/12 07:20:00;;;;;;;32.93;4.33;;;11.60;99.90;;;;;;6313963;22;20014;-80
2023/01/12 07:22:37;;;;;;;;;;;;;;;;;;;;;
2023/01/12 07:40:40;;;;;;;30.77;4.00;;;11.70;99.90;;;;;;6278925;22;20019;-81
2023/01/12 07:59:05;;;;;;;28.20;5.17;;;11.70;99.90;;;;;;6268298;22;20752;31
2023/01/12 08:01:31;;;;;;;30.97;5.60;;;11.80;99.90;;;;;;6226589;22;47540;-82
2023/01/12 08:04:00;;;;;;;30.40;5.37;;;11.80;99.90;;;;;;6271877;22;38561;-80
2023/01/12 08:06:33;;;;;;;24.30;4.70;;;11.80;99.90;;;;;;6266811;22;38957;-81
2023/01/12 08:09:13;;;;;;;26.83;4.72;;;11.70;99.90;;;;;;6307823;22;38591;-81
2023/01/12 08:11:51;;;;;;;33.38;5.70;;;11.70;99.90;;;;;;6335596;22;48557;-82
2023/01/12 08:30:55;;;;;;;32.75;5.28;;;11.90;99.90;;;;;;6288959;22;20028;-81
2023/01/12 08:34:03;;;;;;;35.65;5.85;;;11.90;99.90;;;;;;6327308;22;38786;-81
2023/01/12 08:36:30;;;;;;;37.55;6.20;;;11.90;99.90;;;;;;6306928;22;48486;-81
2023/01/12 08:38:57;;;;;;;40.90;6.10;;;11.90;99.90;;;;;;6328796;22;39619;-80
2023/01/12 08:41:32;;;;;;;32.05;5.10;;;12.00;99.90;;;;;;6298013;22;39148;-81
2023/01/12 08:44:10;;;;;;;36.67;8.25;;;12.00;99.90;;;;;;6328422;22;38286;-81
2023/01/12 08:46:51;;;;;;;40.67;6.50;;;12.00;99.90;;;;;;6324865;22;49423;-82
2023/01/12 08:49:21;;;;;;;49.00;6.50;;;12.00;99.90;;;;;;6303525;22;37748;-81
2023/01/12 08:51:55;;;;;;;37.63;6.88;;;12.00;99.90;;;;;;6330720;22;38873;-81
2023/01/12 08:54:21;;;;;;;46.25;7.75;;;12.10;99.90;;;;;;6306240;22;38575;-82
2023/01/12 08:56:48;;;;;;;37.00;6.47;;;12.10;99.90;;;;;;6290906;22;36614;-82
2023/01/12 08:59:15;;;;;;;40.60;7.35;;;12.10;99.90;;;;;;6330583;22;39338;-80
2023/01/12 09:01:42;;;;;;;39.28;6.38;;;12.10;99.90;;;;;;6265860;22;38623;-79
2023/01/12 09:09:21;;;;;;;45.58;7.72;;;12.20;99.90;;;;;;6287109;22;20016;-83
2023/01/12 09:14:24;;;;;;;49.15;7.43;;;12.30;99.90;;;;;;6275005;22;20023;-80
2023/01/12 09:17:21;;;;;;;51.67;7.55;;;12.20;99.90;;;;;;6339389;22;38784;-81
2023/01/12 09:19:49;;;;;;;45.03;6.90;;;12.20;99.90;;;;;;6285953;22;48401;-81
2023/01/12 09:22:35;;;;;;;36.35;5.68;;;12.20;99.90;;;;;;6307536;22;38878;-82
2023/01/12 09:25:02;;;;;;;47.85;7.15;;;12.20;99.90;;;;;;6310089;22;38308;-81
2023/01/12 09:27:29;;;;;;;49.97;6.85;;;12.20;99.90;;;;;;6313395;22;36529;-81
2023/01/12 09:29:55;;;;;;;40.42;6.15;;;12.20;99.90;;;;;;6311456;22;38932;-81
2023/01/12 09:32:28;;;;;;;35.05;6.18;;;12.10;99.90;;;;;;6308191;22;38871;-81
2023/01/12 09:35:26;;;;;;;32.53;5.88;;;12.10;99.90;;;;;;6312251;22;38506;-81
2023/01/12 09:37:53;;;;;;;43.28;6.30;;;12.10;99.90;;;;;;6288240;22;48694;-81
2023/01/12 09:40:19;;;;;;;37.05;7.18;;;12.10;99.90;;;;;;6335527;22;40640;-83
2023/01/12 09:48:30;;;;;;;38.55;6.00;;;12.20;99.90;;;;;;6263754;22;38052;-81
2023/01/12 09:51:08;;;;;;;34.08;5.53;;;12.20;99.90;;;;;;6282912;22;40168;-80
2023/01/12 09:53:39;;;;;;;33.38;6.32;;;12.20;99.90;;;;;;6281642;22;48524;-80
2023/01/12 09:56:27;;;;;;;37.33;5.97;;;12.20;99.90;;;;;;6294639;22;37325;-80
2023/01/12 09:59:21;;;;;;;41.40;7.82;;;12.20;99.90;;;;;;6288181;22;37643;-81
2023/01/12 10:01:52;;;;;;;25.23;4.65;;;12.20;99.90;;;;;;6321736;22;48432;-81
2023/01/12 10:04:22;;;;;;;26.70;4.63;;;12.20;99.90;;;;;;6295770;22;37990;-81
2023/01/12 10:06:49;;;;;;;32.53;5.03;;;12.20;99.90;;;;;;6301716;22;38166;-81
2023/01/12 10:09:20;;;;;;;30.97;5.07;;;12.10;99.90;;;;;;6290035;22;37196;-81
2023/01/12 10:12:14;;;;;;;35.40;5.82;;;12.10;99.90;;;;;;6287522;22;39616;-79
2023/01/12 10:14:41;;;;;;;23.98;4.50;;;12.10;99.90;;;;;;6277121;22;47749;-79
2023/01/12 10:17:38;;;;;;;31.40;4.67;;;12.10;99.90;;;;;;6282804;22;38019;-81
2023/01/12 10:20:20;;;;;;;33.10;4.43;;;12.10;99.90;;;;;;6286199;22;36209;-81
2023/01/12 10:22:53;;;;;;;26.60;4.28;;;12.10;99.90;;;;;;6313077;22;48390;-81
2023/01/12 10:25:28;;;;;;;27.70;5.60;;;12.10;99.90;;;;;;6290788;22;37839;-81
2023/01/12 10:27:57;;;;;;;35.10;5.57;;;12.10;99.90;;;;;;6293217;22;38103;-80
2023/01/12 10:30:35;;;;;;;29.10;4.57;;;12.20;99.90;;;;;;6278471;22;36258;-82
2023/01/12 10:33:19;;;;;;;38.90;5.97;;;12.20;99.90;;;;;;6298303;22;40019;-81
2023/01/12 10:35:57;;;;;;;32.40;4.80;;;12.20;99.90;;;;;;6313136;22;47581;-81
2023/01/12 10:38:38;;;;;;;30.52;4.97;;;12.20;99.90;;;;;;6287554;22;37387;-81
2023/01/12 10:41:10;;;;;;;24.33;5.00;;;12.20;99.90;;;;;;6292600;22;36839;-79
2023/01/12 10:43:41;;;;;;;36.95;6.85;;;12.20;99.90;;;;;;6294437;22;39084;-79
2023/01/12 10:46:18;;;;;;;28.30;5.37;;;12.20;99.90;;;;;;6278564;22;38473;-79
2023/01/12 10:48:47;;;;;;;37.83;5.80;;;12.10;99.90;;;;;;6283168;22;39617;-79
2023/01/12 10:51:33;;;;;;;33.90;5.27;;;12.10;99.90;;;;;;6280474;22;36522;-79
2023/01/12 10:54:07;;;;;;;29.57;4.97;;;12.10;99.90;;;;;;6284630;22;39106;-79
2023/01/12 10:56:42;;;;;;;25.17;5.10;;;12.20;99.90;;;;;;6286167;22;47882;-80
2023/01/12 10:59:11;;;;;;;32.73;4.80;;;12.20;99.90;;;;;;6301872;22;38885;-79
2023/01/12 11:01:42;;;;;;;40.08;6.22;;;12.20;99.90;;;;;;6284024;22;36023;-79
2023/01/12 11:04:13;;;;;;;33.55;6.25;;;12.20;99.90;;;;;;6285020;22;39520;-80
2023/01/12 11:06:44;;;;;;;34.92;6.45;;;12.10;99.90;;;;;;6284054;22;38449;-79
2023/01/12 11:09:23;;;;;;;34.80;6.50;;;12.10;99.90;;;;;;6300525;22;37427;-79
2023/01/12 11:11:57;;;;;;;28.92;4.65;;;12.10;99.90;;;;;;6281632;22;38691;-79
2023/01/12 11:14:32;;;;;;;41.22;6.32;;;12.10;99.90;;;;;;6279430;22;38932;-80
2023/01/12 11:17:35;;;;;;;50.58;6.72;;;12.20;99.90;;;;;;6280705;22;39008;-79
2023/01/12 11:20:13;;;;;;;29.17;5.32;;;12.10;99.90;;;;;;6303807;22;48711;-79
2023/01/12 11:22:41;;;;;;;39.15;6.10;;;12.10;99.90;;;;;;6305429;22;47236;-79
2023/01/12 11:25:30;;;;;;;33.05;6.15;;;12.10;99.90;;;;;;6275857;22;39089;-79
2023/01/12 11:28:06;;;;;;;33.60;5.05;;;12.20;99.90;;;;;;6300816;22;37961;-79
2023/01/12 11:30:40;;;;;;;33.83;4.85;;;12.10;99.90;;;;;;6298649;22;47850;-79
2023/01/12 11:33:14;;;;;;;35.45;6.38;;;12.10;99.90;;;;;;6279896;22;36757;-79
2023/01/12 11:35:48;;;;;;;36.38;5.22;;;12.20;99.90;;;;;;6278305;22;39715;-80
2023/01/12 11:38:23;;;;;;;36.80;5.32;;;12.20;99.90;;;;;;6281479;22;38654;-80
2023/01/12 11:40:52;;;;;;;32.25;5.93;;;12.20;99.90;;;;;;6288708;22;40774;-79
2023/01/12 11:43:50;;;;;;;32.35;5.13;;;12.20;99.90;;;;;;6288524;22;37566;-81
2023/01/12 11:46:25;;;;;;;31.38;6.30;;;12.20;99.90;;;;;;6285836;22;40278;-81
2023/01/12 11:49:26;;;;;;;25.75;4.25;;;12.20;99.90;;;;;;6280495;22;38457;-80
2023/01/12 11:51:58;;;;;;;19.92;3.85;;;12.20;99.90;;;;;;6313923;22;47324;-80
2023/01/12 11:54:27;;;;;;;24.63;3.72;;;12.20;99.90;;;;;;6287012;22;38370;-81
2023/01/12 11:57:14;;;;;;;19.08;3.33;;;12.20;99.90;;;;;;6291434;22;39512;-80
2023/01/12 12:00:07;;;;;;;20.35;3.28;;;12.20;99.90;;;;;;6272290;22;49166;-81
2023/01/12 12:02:40;;;;;;;19.20;3.60;;;12.20;99.90;;;;;;6278674;22;37823;-79
2023/01/12 12:05:37;;;;;;;14.77;2.38;;;12.20;99.90;;;;;;6274860;22;36517;-80
2023/01/12 12:08:36;;;;;;;10.68;2.30;;;12.20;99.90;;;;;;6299767;22;47262;-78
2023/01/12 12:11:28;;;;;;;12.02;1.77;;;12.10;99.90;;;;;;6267873;22;37326;-79
2023/01/12 12:14:31;;;;;;;17.58;2.55;;;12.10;99.90;;;;;;6296684;22;38284;-79
2023/01/12 12:17:24;;;;;;;8.05;1.83;;;12.10;99.90;;;;;;6294523;22;47479;-78
2023/01/12 12:20:05;;;;;;;11.20;2.08;;;12.10;99.90;;;;;;6293978;22;46939;-78
2023/01/12 12:22:31;;;;;;;10.40;2.10;;;12.10;99.90;;;;;;6292656;22;47682;-78
2023/01/12 12:25:04;;;;;;;9.18;1.70;;;12.10;99.90;;;;;;6271982;22;38283;-80
2023/01/12 12:27:54;;;;;;;;;;;12.10;99.90;;;;;;6271433;22;37466;-79
2023/01/12 12:30:38;;;;;;;4.90;1.50;;;12.10;99.90;;;;;;6265783;22;37986;-78
2023/01/12 12:33:17;;;;;;;7.20;1.60;;;12.10;99.90;;;;;;6274913;22;37434;-80
2023/01/12 12:36:15;;;;;;;9.55;1.10;;;12.10;99.90;;;;;;6272335;22;37749;-78
2023/01/12 12:39:06;;;;;;;4.88;0.80;;;12.10;99.90;;;;;;6291173;22;47217;-77
2023/01/12 12:47:41;;;;;;;4.55;0.90;;;12.10;99.90;;;;;;6267906;22;38349;-78
2023/01/12 12:50:24;;;;;;;4.28;0.60;;;12.00;99.90;;;;;;6267463;22;36043;-78
2023/01/12 12:53:25;;;;;;;5.35;1.13;;;12.00;99.90;;;;;;6265682;22;39024;-79
2023/01/12 12:55:54;;;;;;;3.92;0.98;;;12.00;99.90;;;;;;6283210;22;47246;-77
2023/01/12 12:58:20;;;;;;;6.78;0.90;;;12.00;99.90;;;;;;6291394;22;36929;-78
2023/01/12 13:00:47;;;;;;;5.85;0.88;;;12.00;99.90;;;;;;6266621;22;36124;-78
2023/01/12 13:03:38;;;;;;;9.82;1.38;;;12.00;99.90;;;;;;6263877;22;37755;-77
2023/01/12 13:06:15;;;;;;;7.10;0.93;;;12.00;99.90;;;;;;6265496;22;38543;-77
2023/01/12 13:08:41;;;;;;;5.32;1.20;;;12.00;99.90;;;;;;6266256;22;39334;-77
2023/01/12 13:11:09;;;;;;;6.10;0.68;;;12.00;99.90;;;;;;6266874;22;38319;-77
2023/01/12 13:13:36;;;;;;;7.57;0.90;;;12.00;99.90;;;;;;6276356;22;38718;-77
2023/01/12 13:16:17;;;;;;;5.33;0.90;;;12.00;99.90;;;;;;6273385;22;37449;-79
2023/01/12 13:18:50;;;;;;;5.90;0.60;;;12.00;99.90;;;;;;6270486;22;38719;-78
2023/01/12 13:21:56;;;;;;;5.90;0.98;;;12.00;99.90;;;;;;6274702;22;37938;-79
2023/01/12 13:24:39;;;;;;;3.42;0.95;;;12.00;99.90;;;;;;6273118;22;37619;-79
2023/01/12 13:27:25;;;;;;;;;;;11.90;99.90;;;;;;6278006;22;38244;-78
2023/01/12 13:30:11;;;;;;;2.92;0.90;;;11.90;99.90;;;;;;6276612;22;39509;-78
2023/01/12 13:32:42;;;;;;;4.47;0.85;;;11.90;99.90;;;;;;6299335;22;49925;-78
2023/01/12 13:35:32;;;;;;;3.75;0.70;;;11.90;99.90;;;;;;6273570;22;39657;-79
2023/01/12 13:38:32;;;;;;;6.87;0.80;;;11.90;99.90;;;;;;6277679;22;38539;-78
2023/01/12 13:41:13;;;;;;;4.33;1.10;;;11.90;99.90;;;;;;6273635;22;47501;-78
2023/01/12 13:43:53;;;;;;;3.58;1.02;;;11.90;99.90;;;;;;6274104;22;48615;-78
2023/01/12 13:46:20;;;;;;;7.73;1.53;;;11.90;99.90;;;;;;6274129;22;39239;-80
2023/01/12 13:48:52;;;;;;;6.33;1.50;;;11.90;99.90;;;;;;6276107;22;39068;-77
2023/01/12 13:51:49;;;;;;;4.18;0.63;;;11.90;99.90;;;;;;6270206;22;37778;-78
2023/01/12 13:54:16;;;;;;;5.90;1.50;;;11.90;99.90;;;;;;6291998;22;38098;-79
2023/01/12 13:56:52;;;;;;;4.60;1.83;;;11.90;99.90;;;;;;6267260;22;39695;-79
2023/01/12 13:59:18;;;;;;;6.90;1.10;;;11.90;99.90;;;;;;6276580;22;38458;-79
2023/01/12 14:01:47;;;;;;;6.43;0.80;;;11.90;99.90;;;;;;6296709;22;38715;-78
2023/01/12 14:04:16;;;;;;;5.10;1.17;;;11.80;99.90;;;;;;6273473;22;39700;-78
2023/01/12 14:07:05;;;;;;;5.57;1.13;;;11.80;99.90;;;;;;6273635;22;38872;-79
2023/01/12 14:10:00;;;;;;;6.33;1.27;;;11.90;99.90;;;;;;6297230;22;48711;-78
2023/01/12 14:13:00;;;;;;;4.20;1.10;;;11.80;99.90;;;;;;6270468;22;39192;-78
2023/01/12 14:18:26;;;;;;;3.10;1.00;;;11.80;99.90;;;;;;6267491;22;40370;-78
2023/01/12 14:20:58;;;;;;;7.87;1.17;;;11.80;99.90;;;;;;6267444;22;40242;-78
2023/01/12 14:23:29;;;;;;;4.07;1.20;;;11.80;99.90;;;;;;6265626;22;38807;-78
2023/01/12 14:26:21;;;;;;;2.93;0.80;;;11.80;99.90;;;;;;6265959;22;37826;-80
2023/01/12 14:28:50;;;;;;;6.67;1.10;;;11.80;99.90;;;;;;6266968;22;48635;-78
2023/01/12 14:31:43;;;;;;;3.90;1.00;;;11.70;99.90;;;;;;6265524;22;38737;-79
2023/01/12 14:35:01;;;;;;;6.17;0.87;;;11.70;99.90;;;;;;6277973;22;38275;-79
2023/01/12 14:47:23;;;;;;;4.47;1.10;;;11.70;99.90;;;;;;6335785;22;39444;-81
2023/01/12 14:56:50;;;;;;;5.83;1.20;;;11.70;99.90;;;;;;6237359;22;20008;-80
2023/01/12 15:01:52;;;;;;;7.40;1.00;;;11.70;99.90;;;;;;6251850;22;20008;-83
2023/01/12 15:04:22;;;;;;;8.20;1.23;;;11.70;99.90;;;;;;6257584;22;39159;-82
2023/01/12 15:07:01;;;;;;;3.47;0.80;;;11.70;99.90;;;;;;6276222;22;38567;-81
2023/01/12 15:12:59;;;;;;;8.83;2.73;;;11.70;99.90;;;;;;6245586;22;20022;-79
2023/01/12 15:28:39;;;;;;;4.33;1.27;;;11.60;99.90;;;;;;6175807;22;50518;-80
2023/01/12 15:34:15;;;;;;;7.40;1.30;;;11.60;99.90;;;;;;6248467;22;20217;-79
2023/01/12 15:37:07;;;;;;;9.43;1.70;;;11.60;99.90;;;;;;6291493;22;38225;-80